sensor_id;sensor_type;location;lat;lon;timestamp;pressure;altitude;pressure_sealevel;temperature;humidity
7824;BME280;3957;48.61947800;9.05303100;2023-02-18T00:00:39;97024.63;;;9.02;100.00
7824;BME280;3957;48.61947800;9.05303100;2023-02-18T00:01:40;97029.28;;;9.17;100.00
7824;BME280;3957;48.61947800;9.05303100;2023-02-18T00:02:40;97024.06;;;9.24;100.00
7824;BME280;3957;48.61947800;9.05303100;2023-02-18T00:03:41;97020.22;;;9.26;100.00
7824;BME280;3957;48.61947800;9.05303100;2023-02-18T00:04:41;97019.75;;;9.23;100.00
7824;BME280;3957;48.61947800;9.05303100;2023-02-18T00:05:42;97013.75;;;9.12;100.00
7824;BME280;3957;48.61947800;9.05303100;2023-02-18T00:06:42;97018.63;;;9.09;100.00
7824;BME280;3957;48.61947800;9.05303100;2023-02-18T00:07:43;97019.25;;;9.19;100.00
7824;BME280;3957;48.61947800;9.05303100;2023-02-18T00:08:46;97010.25;;;9.20;100.00
7824;BME280;3957;48.61947800;9.05303100;2023-02-18T00:09:46;97013.34;;;9.32;100.00
7824;BME280;3957;48.61947800;9.05303100;2023-02-18T00:10:47;97005.09;;;9.18;100.00
7824;BME280;3957;48.61947800;9.05303100;2023-02-18T00:11:47;97000.22;;;9.14;100.00
7824;BME280;3957;48.61947800;9.05303100;2023-02-18T00:12:48;97005.72;;;9.21;100.00
7824;BME280;3957;48.61947800;9.05303100;2023-02-18T00:13:53;97002.38;;;9.27;100.00
7824;BME280;3957;48.61947800;9.05303100;2023-02-18T00:14:54;97007.22;;;9.23;100.00
7824;BME280;3957;48.61947800;9.05303100;2023-02-18T00:16:00;97004.56;;;9.23;100.00
7824;BME280;3957;48.61947800;9.05303100;2023-02-18T00:17:00;96995.50;;;9.32;100.00
7824;BME280;3957;48.61947800;9.05303100;2023-02-18T00:18:00;97003.34;;;9.34;100.00
7824;BME280;3957;48.61947800;9.05303100;2023-02-18T00:19:03;96993.16;;;9.29;100.00
7824;BME280;3957;48.61947800;9.05303100;2023-02-18T00:20:05;97002.19;;;9.28;100.00
7824;BME280;3957;48.61947800;9.05303100;2023-02-18T00:21:07;96999.59;;;9.12;100.00
7824;BME280;3957;48.61947800;9.05303100;2023-02-18T00:22:07;97000.22;;;9.22;100.00
7824;BME280;3957;48.61947800;9.05303100;2023-02-18T00:23:08;97002.25;;;9.12;100.00
7824;BME280;3957;48.61947800;9.05303100;2023-02-18T00:24:12;96992.94;;;9.08;100.00
7824;BME280;3957;48.61947800;9.05303100;2023-02-18T00:25:14;96995.06;;;9.12;100.00
7824;BME280;3957;48.61947800;9.05303100;2023-02-18T00:26:16;96996.06;;;9.11;100.00
7824;BME280;3957;48.61947800;9.05303100;2023-02-18T00:27:17;96998.75;;;9.11;100.00
7824;BME280;3957;48.61947800;9.05303100;2023-02-18T00:28:18;96986.88;;;9.14;100.00
7824;BME280;3957;48.61947800;9.05303100;2023-02-18T00:29:19;96991.91;;;9.17;100.00
7824;BME280;3957;48.61947800;9.05303100;2023-02-18T00:30:21;96989.31;;;9.32;100.00
7824;BME280;3957;48.61947800;9.05303100;2023-02-18T00:31:28;96986.69;;;9.24;100.00
7824;BME280;3957;48.61947800;9.05303100;2023-02-18T00:32:29;96992.91;;;9.16;100.00
7824;BME280;3957;48.61947800;9.05303100;2023-02-18T00:33:29;96990.09;;;9.09;100.00
7824;BME280;3957;48.61947800;9.05303100;2023-02-18T00:34:30;96990.06;;;9.17;100.00
7824;BME280;3957;48.61947800;9.05303100;2023-02-18T00:35:30;96996.72;;;9.22;100.00
7824;BME280;3957;48.61947800;9.05303100;2023-02-18T00:36:31;96992.53;;;9.27;100.00
7824;BME280;3957;48.61947800;9.05303100;2023-02-18T00:37:32;97000.22;;;9.22;100.00
7824;BME280;3957;48.61947800;9.05303100;2023-02-18T00:38:33;96991.69;;;9.27;100.00
7824;BME280;3957;48.61947800;9.05303100;2023-02-18T00:39:33;96992.69;;;9.26;100.00
7824;BME280;3957;48.61947800;9.05303100;2023-02-18T00:40:37;96996.56;;;9.15;100.00
7824;BME280;3957;48.61947800;9.05303100;2023-02-18T00:41:38;96998.03;;;9.26;100.00
7824;BME280;3957;48.61947800;9.05303100;2023-02-18T00:42:38;96998.50;;;9.29;100.00
7824;BME280;3957;48.61947800;9.05303100;2023-02-18T00:43:38;96995.84;;;9.29;100.00
7824;BME280;3957;48.61947800;9.05303100;2023-02-18T00:44:39;96998.19;;;9.32;100.00
7824;BME280;3957;48.61947800;9.05303100;2023-02-18T00:45:40;96997.00;;;9.35;100.00
7824;BME280;3957;48.61947800;9.05303100;2023-02-18T00:46:40;96995.41;;;9.17;100.00
7824;BME280;3957;48.61947800;9.05303100;2023-02-18T00:47:41;96992.06;;;9.15;100.00
7824;BME280;3957;48.61947800;9.05303100;2023-02-18T00:48:41;96996.69;;;9.30;100.00
7824;BME280;3957;48.61947800;9.05303100;2023-02-18T00:49:43;96985.84;;;9.23;100.00
7824;BME280;3957;48.61947800;9.05303100;2023-02-18T00:50:44;96983.19;;;9.23;100.00
7824;BME280;3957;48.61947800;9.05303100;2023-02-18T00:51:44;96981.66;;;9.29;100.00
7824;BME280;3957;48.61947800;9.05303100;2023-02-18T00:52:45;96978.84;;;9.22;100.00
7824;BME280;3957;48.61947800;9.05303100;2023-02-18T00:53:45;96976.88;;;9.16;100.00
7824;BME280;3957;48.61947800;9.05303100;2023-02-18T00:54:46;96972.03;;;9.11;100.00
7824;BME280;3957;48.61947800;9.05303100;2023-02-18T00:55:46;96968.03;;;9.07;100.00
7824;BME280;3957;48.61947800;9.05303100;2023-02-18T00:56:47;96965.69;;;9.12;100.00
7824;BME280;3957;48.61947800;9.05303100;2023-02-18T00:57:47;96958.91;;;9.01;100.00
7824;BME280;3957;48.61947800;9.05303100;2023-02-18T00:58:48;96967.22;;;9.07;100.00
7824;BME280;3957;48.61947800;9.05303100;2023-02-18T00:59:49;96970.22;;;9.12;100.00
7824;BME280;3957;48.61947800;9.05303100;2023-02-18T01:00:50;96965.25;;;9.00;100.00
7824;BME280;3957;48.61947800;9.05303100;2023-02-18T01:01:50;96973.22;;;9.17;100.00
7824;BME280;3957;48.61947800;9.05303100;2023-02-18T01:02:51;96978.22;;;9.12;100.00
7824;BME280;3957;48.61947800;9.05303100;2023-02-18T01:03:55;96970.06;;;9.05;100.00
7824;BME280;3957;48.61947800;9.05303100;2023-02-18T01:04:56;96968.25;;;8.97;100.00
7824;BME280;3957;48.61947800;9.05303100;2023-02-18T01:05:56;96975.22;;;9.07;100.00
7824;BME280;3957;48.61947800;9.05303100;2023-02-18T01:06:57;96964.88;;;9.12;100.00
7824;BME280;3957;48.61947800;9.05303100;2023-02-18T01:07:57;96962.69;;;9.15;100.00
7824;BME280;3957;48.61947800;9.05303100;2023-02-18T01:08:57;96969.53;;;9.10;100.00
7824;BME280;3957;48.61947800;9.05303100;2023-02-18T01:09:58;96971.88;;;9.13;100.00
7824;BME280;3957;48.61947800;9.05303100;2023-02-18T01:10:59;96972.56;;;9.07;100.00
7824;BME280;3957;48.61947800;9.05303100;2023-02-18T01:11:59;96973.53;;;9.14;100.00
7824;BME280;3957;48.61947800;9.05303100;2023-02-18T01:13:00;96972.03;;;9.11;100.00
7824;BME280;3957;48.61947800;9.05303100;2023-02-18T01:14:01;96972.19;;;9.18;100.00
7824;BME280;3957;48.61947800;9.05303100;2023-02-18T01:15:04;96975.53;;;9.20;100.00
7824;BME280;3957;48.61947800;9.05303100;2023-02-18T01:16:06;96970.22;;;9.12;100.00
7824;BME280;3957;48.61947800;9.05303100;2023-02-18T01:17:06;96969.88;;;9.15;100.00
7824;BME280;3957;48.61947800;9.05303100;2023-02-18T01:18:08;96974.41;;;9.06;100.00
7824;BME280;3957;48.61947800;9.05303100;2023-02-18T01:19:08;96966.38;;;9.14;100.00
7824;BME280;3957;48.61947800;9.05303100;2023-02-18T01:20:09;96972.53;;;9.15;100.00
7824;BME280;3957;48.61947800;9.05303100;2023-02-18T01:21:10;96959.22;;;9.07;100.00
7824;BME280;3957;48.61947800;9.05303100;2023-02-18T01:22:11;96966.06;;;9.09;100.00
7824;BME280;3957;48.61947800;9.05303100;2023-02-18T01:23:12;96961.72;;;9.08;100.00
7824;BME280;3957;48.61947800;9.05303100;2023-02-18T01:24:12;96962.56;;;9.09;100.00
7824;BME280;3957;48.61947800;9.05303100;2023-02-18T01:25:13;96961.88;;;9.07;100.00
7824;BME280;3957;48.61947800;9.05303100;2023-02-18T01:26:14;96958.06;;;9.01;100.00
7824;BME280;3957;48.61947800;9.05303100;2023-02-18T01:27:14;96963.75;;;8.98;100.00
7824;BME280;3957;48.61947800;9.05303100;2023-02-18T01:28:15;96954.69;;;9.07;100.00
7824;BME280;3957;48.61947800;9.05303100;2023-02-18T01:29:17;96962.41;;;9.02;100.00
7824;BME280;3957;48.61947800;9.05303100;2023-02-18T01:30:17;96958.72;;;9.03;100.00
7824;BME280;3957;48.61947800;9.05303100;2023-02-18T01:31:18;96962.41;;;9.02;100.00
7824;BME280;3957;48.61947800;9.05303100;2023-02-18T01:32:19;96959.75;;;9.02;100.00
7824;BME280;3957;48.61947800;9.05303100;2023-02-18T01:33:20;96951.38;;;9.05;100.00
7824;BME280;3957;48.61947800;9.05303100;2023-02-18T01:34:20;96947.22;;;9.02;100.00
7824;BME280;3957;48.61947800;9.05303100;2023-02-18T01:35:21;96943.59;;;8.95;100.00
7824;BME280;3957;48.61947800;9.05303100;2023-02-18T01:36:21;96944.75;;;8.93;100.00
7824;BME280;3957;48.61947800;9.05303100;2023-02-18T01:37:21;96951.56;;;9.04;100.00
7824;BME280;3957;48.61947800;9.05303100;2023-02-18T01:38:24;96941.75;;;8.88;100.00
7824;BME280;3957;48.61947800;9.05303100;2023-02-18T01:39:25;96938.59;;;8.92;100.00
7824;BME280;3957;48.61947800;9.05303100;2023-02-18T01:40:26;96936.06;;;8.91;100.00
7824;BME280;3957;48.61947800;9.05303100;2023-02-18T01:41:27;96938.88;;;8.97;100.00
7824;BME280;3957;48.61947800;9.05303100;2023-02-18T01:42:28;96938.72;;;8.99;100.00
7824;BME280;3957;48.61947800;9.05303100;2023-02-18T01:43:30;96947.41;;;8.93;100.00
7824;BME280;3957;48.61947800;9.05303100;2023-02-18T01:44:34;96946.09;;;8.89;100.00
7824;BME280;3957;48.61947800;9.05303100;2023-02-18T01:46:36;96955.94;;;8.88;100.00
7824;BME280;3957;48.61947800;9.05303100;2023-02-18T01:47:36;96951.25;;;8.90;100.00
7824;BME280;3957;48.61947800;9.05303100;2023-02-18T01:48:48;96946.09;;;8.89;100.00
7824;BME280;3957;48.61947800;9.05303100;2023-02-18T01:49:51;96943.63;;;8.79;100.00
7824;BME280;3957;48.61947800;9.05303100;2023-02-18T01:51:02;96941.59;;;8.81;100.00
7824;BME280;3957;48.61947800;9.05303100;2023-02-18T01:52:08;96945.63;;;8.68;100.00
7824;BME280;3957;48.61947800;9.05303100;2023-02-18T01:53:11;96942.66;;;8.72;100.00
7824;BME280;3957;48.61947800;9.05303100;2023-02-18T01:54:18;96947.84;;;8.57;100.00
7824;BME280;3957;48.61947800;9.05303100;2023-02-18T01:55:20;96946.19;;;8.56;100.00
7824;BME280;3957;48.61947800;9.05303100;2023-02-18T01:56:31;96950.38;;;8.50;100.00
7824;BME280;3957;48.61947800;9.05303100;2023-02-18T01:57:35;96946.53;;;8.53;100.00
7824;BME280;3957;48.61947800;9.05303100;2023-02-18T01:58:37;96944.38;;;8.48;100.00
7824;BME280;3957;48.61947800;9.05303100;2023-02-18T01:59:48;96949.03;;;8.54;100.00
7824;BME280;3957;48.61947800;9.05303100;2023-02-18T02:00:51;96947.03;;;8.48;100.00
7824;BME280;3957;48.61947800;9.05303100;2023-02-18T02:01:51;96946.00;;;8.57;100.00
7824;BME280;3957;48.61947800;9.05303100;2023-02-18T02:02:53;96947.69;;;8.42;100.00
7824;BME280;3957;48.61947800;9.05303100;2023-02-18T02:03:54;96952.00;;;8.43;100.00
7824;BME280;3957;48.61947800;9.05303100;2023-02-18T02:04:54;96950.34;;;8.33;100.00
7824;BME280;3957;48.61947800;9.05303100;2023-02-18T02:05:55;96950.00;;;8.37;100.00
7824;BME280;3957;48.61947800;9.05303100;2023-02-18T02:06:55;96947.50;;;8.43;100.00
7824;BME280;3957;48.61947800;9.05303100;2023-02-18T02:07:58;96953.72;;;8.52;100.00
7824;BME280;3957;48.61947800;9.05303100;2023-02-18T02:09:02;96949.53;;;8.58;100.00
7824;BME280;3957;48.61947800;9.05303100;2023-02-18T02:10:04;96937.34;;;8.55;100.00
7824;BME280;3957;48.61947800;9.05303100;2023-02-18T02:11:20;96949.00;;;8.62;100.00
7824;BME280;3957;48.61947800;9.05303100;2023-02-18T02:14:00;96947.34;;;8.61;100.00
7824;BME280;3957;48.61947800;9.05303100;2023-02-18T02:16:28;96931.03;;;8.56;100.00
7824;BME280;3957;48.61947800;9.05303100;2023-02-18T02:19:00;96915.16;;;8.63;100.00
7824;BME280;3957;48.61947800;9.05303100;2023-02-18T02:25:49;96912.00;;;8.43;100.00
7824;BME280;3957;48.61947800;9.05303100;2023-02-18T02:27:02;96907.50;;;8.35;100.00
7824;BME280;3957;48.61947800;9.05303100;2023-02-18T02:39:12;96923.06;;;8.15;100.00
7824;BME280;3957;48.61947800;9.05303100;2023-02-18T02:40:25;96919.34;;;8.16;100.00
7824;BME280;3957;48.61947800;9.05303100;2023-02-18T02:43:01;96917.53;;;8.16;100.00
7824;BME280;3957;48.61947800;9.05303100;2023-02-18T02:45:37;96911.38;;;8.16;100.00
7824;BME280;3957;48.61947800;9.05303100;2023-02-18T02:46:44;96917.88;;;8.13;100.00
7824;BME280;3957;48.61947800;9.05303100;2023-02-18T02:49:31;96903.53;;;8.14;100.00
7824;BME280;3957;48.61947800;9.05303100;2023-02-18T02:50:44;96905.53;;;8.21;100.00
7824;BME280;3957;48.61947800;9.05303100;2023-02-18T02:52:02;96906.19;;;8.23;100.00
7824;BME280;3957;48.61947800;9.05303100;2023-02-18T02:53:19;96907.03;;;8.23;100.00
7824;BME280;3957;48.61947800;9.05303100;2023-02-18T02:54:25;96909.03;;;8.21;100.00
7824;BME280;3957;48.61947800;9.05303100;2023-02-18T02:55:28;96901.03;;;8.21;100.00
7824;BME280;3957;48.61947800;9.05303100;2023-02-18T02:56:29;96900.69;;;8.16;100.00
7824;BME280;3957;48.61947800;9.05303100;2023-02-18T02:58:47;96899.53;;;8.10;100.00
7824;BME280;3957;48.61947800;9.05303100;2023-02-18T02:59:54;96897.72;;;8.11;100.00
7824;BME280;3957;48.61947800;9.05303100;2023-02-18T03:06:35;96900.22;;;8.04;100.00
7824;BME280;3957;48.61947800;9.05303100;2023-02-18T03:08:28;96901.03;;;8.05;100.00
7824;BME280;3957;48.61947800;9.05303100;2023-02-18T03:09:55;96902.38;;;8.00;100.00
7824;BME280;3957;48.61947800;9.05303100;2023-02-18T03:11:06;96902.22;;;8.02;100.00
7824;BME280;3957;48.61947800;9.05303100;2023-02-18T03:12:11;96903.06;;;8.11;100.00
7824;BME280;3957;48.61947800;9.05303100;2023-02-18T03:13:28;96899.72;;;8.17;100.00
7824;BME280;3957;48.61947800;9.05303100;2023-02-18T03:14:49;96896.88;;;8.18;100.00
7824;BME280;3957;48.61947800;9.05303100;2023-02-18T03:15:57;96890.72;;;8.18;100.00
7824;BME280;3957;48.61947800;9.05303100;2023-02-18T03:17:06;96892.03;;;8.22;100.00
7824;BME280;3957;48.61947800;9.05303100;2023-02-18T03:18:30;96906.53;;;8.28;100.00
7824;BME280;3957;48.61947800;9.05303100;2023-02-18T03:20:40;96900.03;;;8.30;100.00
7824;BME280;3957;48.61947800;9.05303100;2023-02-18T03:21:47;96902.50;;;8.40;100.00
7824;BME280;3957;48.61947800;9.05303100;2023-02-18T03:22:53;96899.34;;;8.37;100.00
7824;BME280;3957;48.61947800;9.05303100;2023-02-18T03:24:04;96900.03;;;8.30;100.00
7824;BME280;3957;48.61947800;9.05303100;2023-02-18T03:25:07;96895.34;;;8.32;100.00
7824;BME280;3957;48.61947800;9.05303100;2023-02-18T03:26:13;96900.00;;;8.39;100.00
7824;BME280;3957;48.61947800;9.05303100;2023-02-18T03:27:28;96890.50;;;8.44;100.00
7824;BME280;3957;48.61947800;9.05303100;2023-02-18T03:28:31;96896.19;;;8.41;100.00
7824;BME280;3957;48.61947800;9.05303100;2023-02-18T03:29:35;96881.53;;;8.37;100.00
7824;BME280;3957;48.61947800;9.05303100;2023-02-18T03:30:41;96893.53;;;8.33;100.00
7824;BME280;3957;48.61947800;9.05303100;2023-02-18T03:31:45;96886.84;;;8.37;100.00
7824;BME280;3957;48.61947800;9.05303100;2023-02-18T03:32:50;96888.34;;;8.40;100.00
7824;BME280;3957;48.61947800;9.05303100;2023-02-18T03:34:03;96879.03;;;8.36;100.00
7824;BME280;3957;48.61947800;9.05303100;2023-02-18T03:35:12;96885.19;;;8.28;100.00
7824;BME280;3957;48.61947800;9.05303100;2023-02-18T03:36:13;96871.34;;;8.24;100.00
7824;BME280;3957;48.61947800;9.05303100;2023-02-18T03:37:14;96878.19;;;8.27;100.00
7824;BME280;3957;48.61947800;9.05303100;2023-02-18T03:38:22;96870.88;;;8.21;100.00
7824;BME280;3957;48.61947800;9.05303100;2023-02-18T03:39:26;96867.72;;;8.17;100.00
7824;BME280;3957;48.61947800;9.05303100;2023-02-18T03:40:28;96867.25;;;8.13;100.00
7824;BME280;3957;48.61947800;9.05303100;2023-02-18T03:41:29;96861.06;;;8.13;100.00
7824;BME280;3957;48.61947800;9.05303100;2023-02-18T03:42:31;96864.59;;;8.05;100.00
7824;BME280;3957;48.61947800;9.05303100;2023-02-18T03:43:32;96861.91;;;8.05;100.00
7824;BME280;3957;48.61947800;9.05303100;2023-02-18T03:44:33;96858.22;;;8.06;100.00
7824;BME280;3957;48.61947800;9.05303100;2023-02-18T03:45:33;96860.06;;;8.06;100.00
7824;BME280;3957;48.61947800;9.05303100;2023-02-18T03:46:36;96857.59;;;8.04;100.00
7824;BME280;3957;48.61947800;9.05303100;2023-02-18T03:47:37;96853.41;;;8.02;100.00
7824;BME280;3957;48.61947800;9.05303100;2023-02-18T03:48:37;96857.25;;;7.99;100.00
7824;BME280;3957;48.61947800;9.05303100;2023-02-18T03:49:38;96855.41;;;7.99;100.00
7824;BME280;3957;48.61947800;9.05303100;2023-02-18T03:50:38;96850.75;;;7.93;100.00
7824;BME280;3957;48.61947800;9.05303100;2023-02-18T03:51:39;96860.78;;;7.91;100.00
7824;BME280;3957;48.61947800;9.05303100;2023-02-18T03:52:41;96851.56;;;7.94;100.00
7824;BME280;3957;48.61947800;9.05303100;2023-02-18T03:53:41;96861.75;;;7.90;100.00
7824;BME280;3957;48.61947800;9.05303100;2023-02-18T03:54:41;96861.75;;;7.90;100.00
7824;BME280;3957;48.61947800;9.05303100;2023-02-18T03:55:42;96858.09;;;7.91;100.00
7824;BME280;3957;48.61947800;9.05303100;2023-02-18T03:56:42;96862.09;;;7.87;100.00
7824;BME280;3957;48.61947800;9.05303100;2023-02-18T03:57:43;96862.59;;;7.82;100.00
7824;BME280;3957;48.61947800;9.05303100;2023-02-18T03:58:43;96858.09;;;7.83;100.00
7824;BME280;3957;48.61947800;9.05303100;2023-02-18T03:59:44;96866.75;;;7.85;100.00
7824;BME280;3957;48.61947800;9.05303100;2023-02-18T04:00:44;96866.25;;;7.90;100.00
7824;BME280;3957;48.61947800;9.05303100;2023-02-18T04:01:45;96864.78;;;7.87;100.00
7824;BME280;3957;48.61947800;9.05303100;2023-02-18T04:02:45;96865.41;;;7.89;100.00
7824;BME280;3957;48.61947800;9.05303100;2023-02-18T04:03:46;96868.25;;;7.88;100.00
7824;BME280;3957;48.61947800;9.05303100;2023-02-18T04:04:46;96855.94;;;7.87;100.00
7824;BME280;3957;48.61947800;9.05303100;2023-02-18T04:05:46;96857.44;;;7.89;100.00
7824;BME280;3957;48.61947800;9.05303100;2023-02-18T04:06:47;96867.44;;;7.87;100.00
7824;BME280;3957;48.61947800;9.05303100;2023-02-18T04:07:47;96867.25;;;7.89;100.00
7824;BME280;3957;48.61947800;9.05303100;2023-02-18T04:08:48;96868.09;;;7.81;100.00
7824;BME280;3957;48.61947800;9.05303100;2023-02-18T04:09:48;96864.25;;;7.83;100.00
7824;BME280;3957;48.61947800;9.05303100;2023-02-18T04:10:49;96868.59;;;7.85;100.00
7824;BME280;3957;48.61947800;9.05303100;2023-02-18T04:11:49;96874.56;;;7.87;100.00
7824;BME280;3957;48.61947800;9.05303100;2023-02-18T04:12:50;96878.91;;;7.88;100.00
7824;BME280;3957;48.61947800;9.05303100;2023-02-18T04:13:50;96872.25;;;7.83;100.00
7824;BME280;3957;48.61947800;9.05303100;2023-02-18T04:14:51;96872.41;;;7.82;100.00
7824;BME280;3957;48.61947800;9.05303100;2023-02-18T04:15:52;96864.78;;;7.79;100.00
7824;BME280;3957;48.61947800;9.05303100;2023-02-18T04:16:52;96865.09;;;7.76;100.00
7824;BME280;3957;48.61947800;9.05303100;2023-02-18T04:17:53;96871.75;;;7.72;100.00
7824;BME280;3957;48.61947800;9.05303100;2023-02-18T04:18:53;96868.75;;;7.66;100.00
7824;BME280;3957;48.61947800;9.05303100;2023-02-18T04:19:54;96874.56;;;7.70;100.00
7824;BME280;3957;48.61947800;9.05303100;2023-02-18T04:20:54;96865.59;;;7.71;100.00
7824;BME280;3957;48.61947800;9.05303100;2023-02-18T04:21:54;96862.94;;;7.71;100.00
7824;BME280;3957;48.61947800;9.05303100;2023-02-18T04:22:55;96867.75;;;7.68;100.00
7824;BME280;3957;48.61947800;9.05303100;2023-02-18T04:23:55;96863.91;;;7.70;100.00
7824;BME280;3957;48.61947800;9.05303100;2023-02-18T04:24:55;96858.75;;;7.69;100.00
7824;BME280;3957;48.61947800;9.05303100;2023-02-18T04:25:56;96868.09;;;7.73;100.00
7824;BME280;3957;48.61947800;9.05303100;2023-02-18T04:26:56;96865.41;;;7.73;100.00
7824;BME280;3957;48.61947800;9.05303100;2023-02-18T04:27:57;96868.09;;;7.73;100.00
7824;BME280;3957;48.61947800;9.05303100;2023-02-18T04:28:57;96870.09;;;7.71;100.00
7824;BME280;3957;48.61947800;9.05303100;2023-02-18T04:29:57;96865.09;;;7.68;100.00
7824;BME280;3957;48.61947800;9.05303100;2023-02-18T04:30:58;96857.09;;;7.68;100.00
7824;BME280;3957;48.61947800;9.05303100;2023-02-18T04:31:58;96866.94;;;7.67;100.00
7824;BME280;3957;48.61947800;9.05303100;2023-02-18T04:32:58;96863.75;;;7.63;100.00
7824;BME280;3957;48.61947800;9.05303100;2023-02-18T04:33:59;96862.75;;;7.64;100.00
7824;BME280;3957;48.61947800;9.05303100;2023-02-18T04:34:59;96862.25;;;7.61;100.00
7824;BME280;3957;48.61947800;9.05303100;2023-02-18T04:36:00;96865.41;;;7.64;100.00
7824;BME280;3957;48.61947800;9.05303100;2023-02-18T04:37:00;96864.09;;;7.69;100.00
7824;BME280;3957;48.61947800;9.05303100;2023-02-18T04:38:01;96865.09;;;7.68;100.00
7824;BME280;3957;48.61947800;9.05303100;2023-02-18T04:39:01;96870.75;;;7.64;100.00
7824;BME280;3957;48.61947800;9.05303100;2023-02-18T04:40:02;96863.75;;;7.72;100.00
7824;BME280;3957;48.61947800;9.05303100;2023-02-18T04:41:03;96858.75;;;7.69;100.00
7824;BME280;3957;48.61947800;9.05303100;2023-02-18T04:42:03;96861.94;;;7.72;100.00
7824;BME280;3957;48.61947800;9.05303100;2023-02-18T04:43:07;96856.91;;;7.77;100.00
7824;BME280;3957;48.61947800;9.05303100;2023-02-18T04:44:08;96856.09;;;7.77;100.00
7824;BME280;3957;48.61947800;9.05303100;2023-02-18T04:45:08;96861.09;;;7.72;100.00
7824;BME280;3957;48.61947800;9.05303100;2023-02-18T04:46:09;96858.25;;;7.65;100.00
7824;BME280;3957;48.61947800;9.05303100;2023-02-18T04:47:09;96861.09;;;7.72;100.00
7824;BME280;3957;48.61947800;9.05303100;2023-02-18T04:48:09;96859.56;;;7.61;100.00
7824;BME280;3957;48.61947800;9.05303100;2023-02-18T04:49:10;96857.44;;;7.64;100.00
7824;BME280;3957;48.61947800;9.05303100;2023-02-18T04:50:10;96858.09;;;7.75;100.00
7824;BME280;3957;48.61947800;9.05303100;2023-02-18T04:51:10;96858.09;;;7.75;100.00
7824;BME280;3957;48.61947800;9.05303100;2023-02-18T04:52:11;96869.06;;;7.80;100.00
7824;BME280;3957;48.61947800;9.05303100;2023-02-18T04:53:11;96855.75;;;7.80;100.00
7824;BME280;3957;48.61947800;9.05303100;2023-02-18T04:54:12;96861.25;;;7.78;100.00
7824;BME280;3957;48.61947800;9.05303100;2023-02-18T04:55:12;96866.41;;;7.80;100.00
7824;BME280;3957;48.61947800;9.05303100;2023-02-18T04:56:13;96862.59;;;7.82;100.00
7824;BME280;3957;48.61947800;9.05303100;2023-02-18T04:57:13;96869.41;;;7.77;100.00
7824;BME280;3957;48.61947800;9.05303100;2023-02-18T04:58:14;96863.44;;;7.83;100.00
7824;BME280;3957;48.61947800;9.05303100;2023-02-18T04:59:14;96865.41;;;7.81;100.00
7824;BME280;3957;48.61947800;9.05303100;2023-02-18T05:00:17;96862.94;;;7.79;100.00
7824;BME280;3957;48.61947800;9.05303100;2023-02-18T05:01:18;96871.44;;;7.83;100.00
7824;BME280;3957;48.61947800;9.05303100;2023-02-18T05:02:18;96858.09;;;7.75;100.00
7824;BME280;3957;48.61947800;9.05303100;2023-02-18T05:03:19;96863.56;;;7.81;100.00
7824;BME280;3957;48.61947800;9.05303100;2023-02-18T05:04:19;96860.25;;;7.79;100.00
7824;BME280;3957;48.61947800;9.05303100;2023-02-18T05:05:19;96864.09;;;7.85;100.00
7824;BME280;3957;48.61947800;9.05303100;2023-02-18T05:06:20;96856.91;;;7.77;100.00
7824;BME280;3957;48.61947800;9.05303100;2023-02-18T05:07:20;96861.75;;;7.82;100.00
7824;BME280;3957;48.61947800;9.05303100;2023-02-18T05:08:21;96862.75;;;7.73;100.00
7824;BME280;3957;48.61947800;9.05303100;2023-02-18T05:09:21;96855.94;;;7.62;100.00
7824;BME280;3957;48.61947800;9.05303100;2023-02-18T05:10:22;96854.59;;;7.66;100.00
7824;BME280;3957;48.61947800;9.05303100;2023-02-18T05:11:22;96862.75;;;7.64;100.00
7824;BME280;3957;48.61947800;9.05303100;2023-02-18T05:12:22;96856.91;;;7.69;100.00
7824;BME280;3957;48.61947800;9.05303100;2023-02-18T05:13:23;96859.59;;;7.69;100.00
7824;BME280;3957;48.61947800;9.05303100;2023-02-18T05:14:23;96857.44;;;7.64;100.00
7824;BME280;3957;48.61947800;9.05303100;2023-02-18T05:15:24;96858.25;;;7.65;100.00
7824;BME280;3957;48.61947800;9.05303100;2023-02-18T05:16:24;96852.09;;;7.56;100.00
7824;BME280;3957;48.61947800;9.05303100;2023-02-18T05:17:25;96858.41;;;7.63;100.00
7824;BME280;3957;48.61947800;9.05303100;2023-02-18T05:18:25;96857.25;;;7.66;100.00
7824;BME280;3957;48.61947800;9.05303100;2023-02-18T05:19:26;96858.75;;;7.69;100.00
7824;BME280;3957;48.61947800;9.05303100;2023-02-18T05:20:26;96853.09;;;7.72;100.00
7824;BME280;3957;48.61947800;9.05303100;2023-02-18T05:21:27;96852.78;;;7.75;100.00
7824;BME280;3957;48.61947800;9.05303100;2023-02-18T05:22:27;96856.28;;;7.75;100.00
7824;BME280;3957;48.61947800;9.05303100;2023-02-18T05:23:28;96861.25;;;7.70;100.00
7824;BME280;3957;48.61947800;9.05303100;2023-02-18T05:24:28;96861.25;;;7.70;100.00
7824;BME280;3957;48.61947800;9.05303100;2023-02-18T05:25:29;96863.56;;;7.81;100.00
7824;BME280;3957;48.61947800;9.05303100;2023-02-18T05:26:29;96864.91;;;7.69;100.00
7824;BME280;3957;48.61947800;9.05303100;2023-02-18T05:27:29;96866.41;;;7.72;100.00
7824;BME280;3957;48.61947800;9.05303100;2023-02-18T05:28:30;96863.28;;;7.68;100.00
7824;BME280;3957;48.61947800;9.05303100;2023-02-18T05:29:30;96859.28;;;7.89;100.00
7824;BME280;3957;48.61947800;9.05303100;2023-02-18T05:30:30;96862.94;;;7.88;100.00
7824;BME280;3957;48.61947800;9.05303100;2023-02-18T05:31:31;96854.59;;;7.91;100.00
7824;BME280;3957;48.61947800;9.05303100;2023-02-18T05:32:32;96854.41;;;8.00;100.00
7824;BME280;3957;48.61947800;9.05303100;2023-02-18T05:33:32;96862.56;;;8.07;100.00